This is the latest recevied weather packets stored in our database for station/object HG6IQI-10. If no packets are shown the sender has not sent any weather packets the latest 10 day(s).
| Time | Temp. | Humidity | Pressure | Rain* | Wind** | Luminosity | Snow |
|---|---|---|---|---|---|---|---|
| 1778011404 | 13.33° C | 56% | 1011.5 hPa | - | - | - | - |
| 1778010504 | 14.44° C | 52% | 1011.3 hPa | - | - | - | - |
| 1778009604 | 16.11° C | 44% | 1011.2 hPa | - | - | - | - |
| 1778008704 | 18.33° C | 39% | 1011.2 hPa | - | - | - | - |
| 1778007804 | 15.56° C | 46% | 1011.2 hPa | - | - | - | - |
| 1778006904 | 16.11° C | 45% | 1011.1 hPa | - | - | - | - |
| 1778006004 | 16.11° C | 44% | 1011 hPa | - | - | - | - |
| 1778005103 | 17.22° C | 40% | 1010.9 hPa | - | - | - | - |
| 1778004203 | 17.78° C | 38% | 1010.8 hPa | - | - | - | - |
| 1778003303 | 18.89° C | 36% | 1010.7 hPa | - | - | - | - |
| 1778002403 | 20° C | 33% | 1010.8 hPa | - | - | - | - |
| 1778001502 | 21.67° C | 28% | 1010.8 hPa | - | - | - | - |
| 1778000602 | 22.22° C | 26% | 1010.9 hPa | - | - | - | - |
| 1777999702 | 22.78° C | 26% | 1010.9 hPa | - | - | - | - |
| 1777998802 | 23.33° C | 27% | 1010.9 hPa | - | - | - | - |
| 1777997010 | 23.33° C | 26% | 1011 hPa | - | - | - | - |
| 1777996112 | 23.89° C | 27% | 1011.2 hPa | - | - | - | - |
| 1777995204 | 24.44° C | 25% | 1011.1 hPa | - | - | - | - |
| 1777994304 | 25° C | 23% | 1011.3 hPa | - | - | - | - |
| 1777993403 | 25.56° C | 24% | 1011.3 hPa | - | - | - | - |
| 1777992503 | 25.56° C | 25% | 1011.4 hPa | - | - | - | - |
| 1777991603 | 25° C | 24% | 1011.5 hPa | - | - | - | - |
| 1777990703 | 25.56° C | 23% | 1011.8 hPa | - | - | - | - |
| 1777989803 | 25.56° C | 23% | 1011.9 hPa | - | - | - | - |
| 1777988903 | 25.56° C | 23% | 1011.9 hPa | - | - | - | - |
* Rain since midnight (hover to see other rain measurements)
** Current wind speed in m/s (hover to see current wind gust speed)